sensor_id;sensor_type;location;lat;lon;timestamp;pressure;altitude;pressure_sealevel;temperature;humidity
40730;BME280;26418;50.070;8.436;2023-05-09T00:01:12;100274.03;;;15.61;87.34
40730;BME280;26418;50.070;8.436;2023-05-09T00:03:38;100265.22;;;15.55;87.32
40730;BME280;26418;50.070;8.436;2023-05-09T00:06:04;100262.00;;;15.53;86.80
40730;BME280;26418;50.070;8.436;2023-05-09T00:08:30;100277.09;;;15.60;86.75
40730;BME280;26418;50.070;8.436;2023-05-09T00:10:55;100269.06;;;15.54;86.84
40730;BME280;26418;50.070;8.436;2023-05-09T00:13:20;100271.94;;;15.58;86.79
40730;BME280;26418;50.070;8.436;2023-05-09T00:15:46;100275.16;;;15.60;87.02
40730;BME280;26418;50.070;8.436;2023-05-09T00:18:12;100261.84;;;15.50;87.54
40730;BME280;26418;50.070;8.436;2023-05-09T00:20:38;100262.69;;;15.50;87.46
40730;BME280;26418;50.070;8.436;2023-05-09T00:23:05;100265.56;;;15.54;87.63
40730;BME280;26418;50.070;8.436;2023-05-09T00:25:30;100258.50;;;15.53;87.73
40730;BME280;26418;50.070;8.436;2023-05-09T00:27:56;100264.09;;;15.56;87.87
40730;BME280;26418;50.070;8.436;2023-05-09T00:30:21;100260.25;;;15.57;87.83
40730;BME280;26418;50.070;8.436;2023-05-09T00:32:47;100250.78;;;15.55;87.54
40730;BME280;26418;50.070;8.436;2023-05-09T00:35:12;100260.25;;;15.57;87.31
40730;BME280;26418;50.070;8.436;2023-05-09T00:37:37;100238.63;;;15.44;87.62
40730;BME280;26418;50.070;8.436;2023-05-09T00:40:04;100254.16;;;15.52;88.08
40730;BME280;26418;50.070;8.436;2023-05-09T00:42:30;100248.72;;;15.52;87.93
40730;BME280;26418;50.070;8.436;2023-05-09T00:44:55;100243.59;;;15.50;87.70
40730;BME280;26418;50.070;8.436;2023-05-09T00:47:22;100249.53;;;15.52;87.84
40730;BME280;26418;50.070;8.436;2023-05-09T00:49:48;100246.94;;;15.56;87.86
40730;BME280;26418;50.070;8.436;2023-05-09T00:52:14;100242.63;;;15.55;87.84
40730;BME280;26418;50.070;8.436;2023-05-09T00:54:39;100231.09;;;15.49;87.76
40730;BME280;26418;50.070;8.436;2023-05-09T00:57:04;100222.91;;;15.40;88.19
40730;BME280;26418;50.070;8.436;2023-05-09T00:59:30;100225.84;;;15.35;88.18
40730;BME280;26418;50.070;8.436;2023-05-09T01:01:55;100223.25;;;15.39;88.47
40730;BME280;26418;50.070;8.436;2023-05-09T01:04:21;100219.75;;;15.30;88.63
40730;BME280;26418;50.070;8.436;2023-05-09T01:06:55;100225.84;;;15.35;88.68
40730;BME280;26418;50.070;8.436;2023-05-09T01:17:57;100231.47;;;15.30;89.89
40730;BME280;26418;50.070;8.436;2023-05-09T01:20:36;100229.88;;;15.29;89.73
40730;BME280;26418;50.070;8.436;2023-05-09T01:31:57;100201.19;;;15.23;89.66
40730;BME280;26418;50.070;8.436;2023-05-09T01:34:25;100186.94;;;15.17;89.99
40730;BME280;26418;50.070;8.436;2023-05-09T01:36:55;100208.69;;;15.26;89.85
40730;BME280;26418;50.070;8.436;2023-05-09T01:39:23;100191.91;;;15.15;89.99
40730;BME280;26418;50.070;8.436;2023-05-09T01:41:51;100194.63;;;15.15;90.14
40730;BME280;26418;50.070;8.436;2023-05-09T01:44:19;100186.16;;;15.08;90.57
40730;BME280;26418;50.070;8.436;2023-05-09T01:46:46;100198.97;;;15.16;90.32
40730;BME280;26418;50.070;8.436;2023-05-09T01:49:12;100191.44;;;15.13;90.72
40730;BME280;26418;50.070;8.436;2023-05-09T01:51:38;100195.41;;;15.16;90.56
40730;BME280;26418;50.070;8.436;2023-05-09T01:54:04;100198.31;;;15.11;90.88
40730;BME280;26418;50.070;8.436;2023-05-09T01:56:31;100201.09;;;15.02;90.91
40730;BME280;26418;50.070;8.436;2023-05-09T01:58:57;100180.41;;;14.92;91.68
40730;BME280;26418;50.070;8.436;2023-05-09T02:01:24;100196.91;;;14.96;92.08
40730;BME280;26418;50.070;8.436;2023-05-09T02:03:50;100168.56;;;14.79;92.39
40730;BME280;26418;50.070;8.436;2023-05-09T02:06:19;100173.06;;;14.84;91.82
40730;BME280;26418;50.070;8.436;2023-05-09T02:08:46;100183.00;;;14.80;92.36
40730;BME280;26418;50.070;8.436;2023-05-09T02:11:11;100174.06;;;14.70;92.65
40730;BME280;26418;50.070;8.436;2023-05-09T02:13:37;100189.09;;;14.76;92.78
40730;BME280;26418;50.070;8.436;2023-05-09T02:16:04;100195.50;;;14.72;93.07
40730;BME280;26418;50.070;8.436;2023-05-09T02:18:29;100198.56;;;14.70;93.24
40730;BME280;26418;50.070;8.436;2023-05-09T02:20:56;100182.66;;;14.63;93.46
40730;BME280;26418;50.070;8.436;2023-05-09T02:23:22;100181.06;;;14.62;93.80
40730;BME280;26418;50.070;8.436;2023-05-09T02:25:47;100181.41;;;14.70;93.83
40730;BME280;26418;50.070;8.436;2023-05-09T02:28:13;100180.63;;;14.69;93.75
40730;BME280;26418;50.070;8.436;2023-05-09T02:30:41;100175.47;;;14.76;93.84
40730;BME280;26418;50.070;8.436;2023-05-09T02:33:09;100157.72;;;14.70;93.65
40730;BME280;26418;50.070;8.436;2023-05-09T02:35:36;100168.56;;;14.79;93.56
40730;BME280;26418;50.070;8.436;2023-05-09T02:38:02;100173.25;;;14.78;92.86
40730;BME280;26418;50.070;8.436;2023-05-09T02:40:28;100163.50;;;14.69;93.43
40730;BME280;26418;50.070;8.436;2023-05-09T02:42:54;100156.75;;;14.66;94.18
40730;BME280;26418;50.070;8.436;2023-05-09T02:45:20;100172.44;;;14.69;94.20
40730;BME280;26418;50.070;8.436;2023-05-09T02:47:45;100160.78;;;14.69;94.26
40730;BME280;26418;50.070;8.436;2023-05-09T02:50:11;100156.09;;;14.69;94.43
40730;BME280;26418;50.070;8.436;2023-05-09T02:52:36;100146.94;;;14.65;94.36
40730;BME280;26418;50.070;8.436;2023-05-09T02:55:02;100149.88;;;14.69;94.01
40730;BME280;26418;50.070;8.436;2023-05-09T02:57:27;100144.22;;;14.65;94.09
40730;BME280;26418;50.070;8.436;2023-05-09T02:59:53;100158.34;;;14.67;94.16
40730;BME280;26418;50.070;8.436;2023-05-09T03:02:18;100169.09;;;14.72;94.50
40730;BME280;26418;50.070;8.436;2023-05-09T03:04:43;100157.56;;;14.67;94.03
40730;BME280;26418;50.070;8.436;2023-05-09T03:07:09;100157.69;;;14.61;94.54
40730;BME280;26418;50.070;8.436;2023-05-09T03:09:34;100150.19;;;14.58;94.79
40730;BME280;26418;50.070;8.436;2023-05-09T03:12:00;100152.22;;;14.61;94.71
40730;BME280;26418;50.070;8.436;2023-05-09T03:14:25;100148.72;;;14.61;94.96
40730;BME280;26418;50.070;8.436;2023-05-09T03:16:50;100139.59;;;14.57;95.06
40730;BME280;26418;50.070;8.436;2023-05-09T03:19:16;100133.03;;;14.58;95.48
40730;BME280;26418;50.070;8.436;2023-05-09T03:21:41;100138.16;;;14.59;95.46
40730;BME280;26418;50.070;8.436;2023-05-09T03:24:07;100124.56;;;14.51;95.37
40730;BME280;26418;50.070;8.436;2023-05-09T03:26:32;100136.06;;;14.56;95.54
40730;BME280;26418;50.070;8.436;2023-05-09T03:29:00;100138.66;;;14.53;95.99
40730;BME280;26418;50.070;8.436;2023-05-09T03:31:25;100135.28;;;14.47;96.27
40730;BME280;26418;50.070;8.436;2023-05-09T03:33:51;100133.19;;;14.44;96.23
40730;BME280;26418;50.070;8.436;2023-05-09T03:36:16;100119.94;;;14.34;96.60
40730;BME280;26418;50.070;8.436;2023-05-09T03:38:41;100133.84;;;14.32;96.71
40730;BME280;26418;50.070;8.436;2023-05-09T03:41:09;100135.28;;;14.29;97.06
40730;BME280;26418;50.070;8.436;2023-05-09T03:43:34;100140.25;;;14.27;97.27
40730;BME280;26418;50.070;8.436;2023-05-09T03:45:59;100140.72;;;14.29;97.09
40730;BME280;26418;50.070;8.436;2023-05-09T03:48:25;100131.63;;;14.25;97.26
40730;BME280;26418;50.070;8.436;2023-05-09T03:50:50;100134.97;;;14.22;97.64
40730;BME280;26418;50.070;8.436;2023-05-09T03:53:16;100139.13;;;14.20;97.88
40730;BME280;26418;50.070;8.436;2023-05-09T03:55:41;100130.47;;;14.18;97.98
40730;BME280;26418;50.070;8.436;2023-05-09T03:58:06;100114.97;;;14.09;98.38
40730;BME280;26418;50.070;8.436;2023-05-09T04:00:32;100123.94;;;14.19;98.28
40730;BME280;26418;50.070;8.436;2023-05-09T04:02:57;100121.69;;;14.21;98.32
40730;BME280;26418;50.070;8.436;2023-05-09T04:05:23;100124.09;;;14.22;98.37
40730;BME280;26418;50.070;8.436;2023-05-09T04:07:48;100120.91;;;14.29;98.11
40730;BME280;26418;50.070;8.436;2023-05-09T04:10:14;100127.13;;;14.29;98.39
40730;BME280;26418;50.070;8.436;2023-05-09T04:12:39;100118.81;;;14.35;98.14
40730;BME280;26418;50.070;8.436;2023-05-09T04:15:05;100114.66;;;14.37;97.43
40730;BME280;26418;50.070;8.436;2023-05-09T04:17:31;100115.13;;;14.39;97.50
40730;BME280;26418;50.070;8.436;2023-05-09T04:19:56;100114.47;;;14.42;97.51
40730;BME280;26418;50.070;8.436;2023-05-09T04:22:21;100121.69;;;14.56;96.36
40730;BME280;26418;50.070;8.436;2023-05-09T04:24:47;100120.22;;;14.58;96.19
40730;BME280;26418;50.070;8.436;2023-05-09T04:27:12;100132.25;;;14.66;96.22
40730;BME280;26418;50.070;8.436;2023-05-09T04:29:37;100125.53;;;14.72;95.62
40730;BME280;26418;50.070;8.436;2023-05-09T04:32:03;100111.75;;;14.69;95.41
40730;BME280;26418;50.070;8.436;2023-05-09T04:34:29;100112.84;;;14.76;94.56
40730;BME280;26418;50.070;8.436;2023-05-09T04:36:54;100121.97;;;14.89;93.78
40730;BME280;26418;50.070;8.436;2023-05-09T04:39:20;100115.41;;;14.82;93.49
40730;BME280;26418;50.070;8.436;2023-05-09T04:41:46;100123.41;;;14.87;93.81
40730;BME280;26418;50.070;8.436;2023-05-09T04:44:15;100119.09;;;14.86;94.13
40730;BME280;26418;50.070;8.436;2023-05-09T04:46:41;100121.63;;;14.91;93.49
40730;BME280;26418;50.070;8.436;2023-05-09T04:49:06;100120.06;;;14.90;93.56
40730;BME280;26418;50.070;8.436;2023-05-09T04:51:32;100110.88;;;14.94;93.82
40730;BME280;26418;50.070;8.436;2023-05-09T04:53:57;100102.72;;;14.94;93.50
40730;BME280;26418;50.070;8.436;2023-05-09T04:56:22;100102.56;;;15.00;93.59
40730;BME280;26418;50.070;8.436;2023-05-09T04:58:48;100095.31;;;15.04;93.13
40730;BME280;26418;50.070;8.436;2023-05-09T05:01:14;100094.47;;;15.12;91.93
40730;BME280;26418;50.070;8.436;2023-05-09T05:03:40;100100.75;;;15.13;91.58
40730;BME280;26418;50.070;8.436;2023-05-09T05:06:06;100102.47;;;15.17;92.05
40730;BME280;26418;50.070;8.436;2023-05-09T05:08:31;100080.56;;;15.05;92.04
40730;BME280;26418;50.070;8.436;2023-05-09T05:10:56;100083.91;;;15.11;92.43
40730;BME280;26418;50.070;8.436;2023-05-09T05:13:22;100095.56;;;15.20;91.86
40730;BME280;26418;50.070;8.436;2023-05-09T05:15:48;100093.47;;;15.25;92.33
40730;BME280;26418;50.070;8.436;2023-05-09T05:18:13;100083.06;;;15.28;92.22
40730;BME280;26418;50.070;8.436;2023-05-09T05:20:40;100087.94;;;15.43;91.11
40730;BME280;26418;50.070;8.436;2023-05-09T05:23:05;100077.78;;;15.52;89.49
40730;BME280;26418;50.070;8.436;2023-05-09T05:25:31;100076.13;;;15.60;89.45
40730;BME280;26418;50.070;8.436;2023-05-09T05:27:56;100075.00;;;15.61;88.67
40730;BME280;26418;50.070;8.436;2023-05-09T05:30:21;100081.97;;;15.71;88.84
40730;BME280;26418;50.070;8.436;2023-05-09T05:32:47;100080.47;;;15.82;88.27
40730;BME280;26418;50.070;8.436;2023-05-09T05:35:12;100071.31;;;15.87;87.07
40730;BME280;26418;50.070;8.436;2023-05-09T05:37:38;100068.22;;;15.97;87.32
40730;BME280;26418;50.070;8.436;2023-05-09T05:40:04;100065.88;;;16.08;86.96
40730;BME280;26418;50.070;8.436;2023-05-09T05:42:30;100071.97;;;16.26;86.35
40730;BME280;26418;50.070;8.436;2023-05-09T05:44:55;100068.34;;;16.34;84.74
40730;BME280;26418;50.070;8.436;2023-05-09T05:47:21;100057.56;;;16.38;84.90
40730;BME280;26418;50.070;8.436;2023-05-09T05:49:46;100061.47;;;16.49;84.92
40730;BME280;26418;50.070;8.436;2023-05-09T05:52:12;100061.84;;;16.60;84.60
40730;BME280;26418;50.070;8.436;2023-05-09T05:54:37;100060.88;;;16.77;83.49
40730;BME280;26418;50.070;8.436;2023-05-09T05:57:02;100063.75;;;16.93;82.73
40730;BME280;26418;50.070;8.436;2023-05-09T05:59:27;100067.16;;;17.03;81.44
40730;BME280;26418;50.070;8.436;2023-05-09T06:01:53;100061.72;;;17.03;81.33
40730;BME280;26418;50.070;8.436;2023-05-09T06:04:18;100067.41;;;17.10;80.03
40730;BME280;26418;50.070;8.436;2023-05-09T06:06:44;100063.75;;;17.18;80.52
40730;BME280;26418;50.070;8.436;2023-05-09T06:09:09;100070.38;;;17.17;80.66
40730;BME280;26418;50.070;8.436;2023-05-09T06:11:34;100063.75;;;17.18;80.93
40730;BME280;26418;50.070;8.436;2023-05-09T06:14:00;100063.97;;;17.25;80.42
40730;BME280;26418;50.070;8.436;2023-05-09T06:16:26;100051.91;;;17.26;80.54
40730;BME280;26418;50.070;8.436;2023-05-09T06:18:51;100045.09;;;17.33;79.78
40730;BME280;26418;50.070;8.436;2023-05-09T06:21:17;100033.13;;;17.37;79.57
40730;BME280;26418;50.070;8.436;2023-05-09T06:23:42;100047.44;;;17.47;79.53
40730;BME280;26418;50.070;8.436;2023-05-09T06:26:07;100057.34;;;17.51;79.58
40730;BME280;26418;50.070;8.436;2023-05-09T06:28:33;100036.88;;;17.45;78.13
40730;BME280;26418;50.070;8.436;2023-05-09T06:30:58;100044.72;;;17.47;78.44
40730;BME280;26418;50.070;8.436;2023-05-09T06:33:24;100036.97;;;17.49;78.86
40730;BME280;26418;50.070;8.436;2023-05-09T06:35:50;100032.44;;;17.53;78.83
40730;BME280;26418;50.070;8.436;2023-05-09T06:38:15;100037.84;;;17.65;78.86
40730;BME280;26418;50.070;8.436;2023-05-09T06:40:40;100040.47;;;17.74;78.49
40730;BME280;26418;50.070;8.436;2023-05-09T06:43:06;100027.44;;;17.83;78.61
40730;BME280;26418;50.070;8.436;2023-05-09T06:45:31;100026.63;;;17.95;77.82
40730;BME280;26418;50.070;8.436;2023-05-09T06:47:57;100032.88;;;18.08;76.78
40730;BME280;26418;50.070;8.436;2023-05-09T06:50:22;100033.38;;;18.14;76.64
40730;BME280;26418;50.070;8.436;2023-05-09T06:52:47;100036.00;;;18.22;76.36
40730;BME280;26418;50.070;8.436;2023-05-09T06:55:13;100025.91;;;18.27;76.01
40730;BME280;26418;50.070;8.436;2023-05-09T06:57:38;100017.09;;;18.33;75.70
40730;BME280;26418;50.070;8.436;2023-05-09T07:00:05;100023.69;;;18.45;74.52
40730;BME280;26418;50.070;8.436;2023-05-09T07:02:30;100026.16;;;18.50;74.55
40730;BME280;26418;50.070;8.436;2023-05-09T07:04:56;100015.72;;;18.56;74.50
40730;BME280;26418;50.070;8.436;2023-05-09T07:07:21;100011.13;;;18.60;73.92
40730;BME280;26418;50.070;8.436;2023-05-09T07:09:46;100007.88;;;18.70;73.21
40730;BME280;26418;50.070;8.436;2023-05-09T07:12:12;99998.16;;;18.89;72.39
40730;BME280;26418;50.070;8.436;2023-05-09T07:14:37;99982.41;;;19.01;72.00
40730;BME280;26418;50.070;8.436;2023-05-09T07:17:02;99989.22;;;19.08;70.09
40730;BME280;26418;50.070;8.436;2023-05-09T07:19:28;99995.59;;;19.12;69.36
40730;BME280;26418;50.070;8.436;2023-05-09T07:21:53;99997.94;;;19.29;69.72
40730;BME280;26418;50.070;8.436;2023-05-09T07:24:18;99986.38;;;19.40;68.99
40730;BME280;26418;50.070;8.436;2023-05-09T07:26:44;99995.50;;;19.44;68.57
40730;BME280;26418;50.070;8.436;2023-05-09T07:29:09;99995.97;;;19.30;68.19
40730;BME280;26418;50.070;8.436;2023-05-09T07:31:34;99991.13;;;19.23;69.33
40730;BME280;26418;50.070;8.436;2023-05-09T07:34:00;99984.72;;;19.35;69.17
40730;BME280;26418;50.070;8.436;2023-05-09T07:36:25;99977.59;;;19.30;68.38
40730;BME280;26418;50.070;8.436;2023-05-09T07:38:50;99981.13;;;19.31;68.46
40730;BME280;26418;50.070;8.436;2023-05-09T07:41:17;99967.19;;;19.40;69.28
40730;BME280;26418;50.070;8.436;2023-05-09T07:43:43;99962.38;;;19.33;69.19
40730;BME280;26418;50.070;8.436;2023-05-09T07:46:08;99962.63;;;19.28;68.92
40730;BME280;26418;50.070;8.436;2023-05-09T07:48:34;99972.69;;;19.04;69.84
40730;BME280;26418;50.070;8.436;2023-05-09T07:50:59;99975.19;;;18.93;71.00
40730;BME280;26418;50.070;8.436;2023-05-09T07:53:24;99970.94;;;18.80;71.20
40730;BME280;26418;50.070;8.436;2023-05-09T07:55:50;99963.50;;;18.64;72.70
40730;BME280;26418;50.070;8.436;2023-05-09T07:58:16;99957.31;;;18.51;73.22
40730;BME280;26418;50.070;8.436;2023-05-09T08:00:41;99967.56;;;18.54;73.32
40730;BME280;26418;50.070;8.436;2023-05-09T08:03:07;99955.03;;;18.53;73.59
40730;BME280;26418;50.070;8.436;2023-05-09T08:05:32;99949.53;;;18.53;73.85
40730;BME280;26418;50.070;8.436;2023-05-09T08:07:58;99949.53;;;18.53;74.16
40730;BME280;26418;50.070;8.436;2023-05-09T08:10:23;99949.91;;;18.52;74.30
40730;BME280;26418;50.070;8.436;2023-05-09T08:12:49;99949.72;;;18.61;74.13
40730;BME280;26418;50.070;8.436;2023-05-09T08:15:14;99942.16;;;18.54;74.19
40730;BME280;26418;50.070;8.436;2023-05-09T08:17:39;99937.72;;;18.49;74.28
40730;BME280;26418;50.070;8.436;2023-05-09T08:20:05;99924.91;;;18.37;74.67
40730;BME280;26418;50.070;8.436;2023-05-09T08:22:32;99931.25;;;18.42;74.93
40730;BME280;26418;50.070;8.436;2023-05-09T08:24:57;99923.13;;;18.45;75.18
40730;BME280;26418;50.070;8.436;2023-05-09T08:27:22;99924.44;;;18.51;75.24
40730;BME280;26418;50.070;8.436;2023-05-09T08:29:48;99922.59;;;18.56;74.57
40730;BME280;26418;50.070;8.436;2023-05-09T08:32:13;99915.16;;;18.56;74.12
40730;BME280;26418;50.070;8.436;2023-05-09T08:34:38;99904.13;;;18.52;74.51
40730;BME280;26418;50.070;8.436;2023-05-09T08:37:03;99905.19;;;18.64;74.46
40730;BME280;26418;50.070;8.436;2023-05-09T08:39:29;99903.75;;;18.70;74.41
40730;BME280;26418;50.070;8.436;2023-05-09T08:41:59;99911.38;;;18.77;73.55
40730;BME280;26418;50.070;8.436;2023-05-09T08:44:25;99909.31;;;18.74;74.04
40730;BME280;26418;50.070;8.436;2023-05-09T08:46:54;99908.72;;;18.64;74.59
40730;BME280;26418;50.070;8.436;2023-05-09T08:49:20;99909.69;;;18.56;74.82
40730;BME280;26418;50.070;8.436;2023-05-09T08:51:49;99904.13;;;18.52;74.69
40730;BME280;26418;50.070;8.436;2023-05-09T08:54:15;99901.13;;;18.42;75.21
40730;BME280;26418;50.070;8.436;2023-05-09T08:56:41;99909.00;;;18.43;75.56
40730;BME280;26418;50.070;8.436;2023-05-09T08:59:07;99897.44;;;18.34;75.71
40730;BME280;26418;50.070;8.436;2023-05-09T09:01:33;99897.63;;;18.41;75.60
40730;BME280;26418;50.070;8.436;2023-05-09T09:04:05;99890.47;;;18.36;75.90
40730;BME280;26418;50.070;8.436;2023-05-09T09:06:34;99898.41;;;18.42;75.45
40730;BME280;26418;50.070;8.436;2023-05-09T09:09:01;99893.75;;;18.42;75.96
40730;BME280;26418;50.070;8.436;2023-05-09T09:11:30;99890.09;;;18.38;75.96
40730;BME280;26418;50.070;8.436;2023-05-09T09:14:00;99894.16;;;18.44;76.10
40730;BME280;26418;50.070;8.436;2023-05-09T09:16:27;99881.44;;;18.36;76.26
40730;BME280;26418;50.070;8.436;2023-05-09T09:18:54;99899.03;;;18.51;76.46
40730;BME280;26418;50.070;8.436;2023-05-09T09:21:20;99879.56;;;18.56;75.97
40730;BME280;26418;50.070;8.436;2023-05-09T09:23:46;99868.59;;;18.56;75.37
40730;BME280;26418;50.070;8.436;2023-05-09T09:26:13;99876.03;;;18.72;75.64
40730;BME280;26418;50.070;8.436;2023-05-09T09:28:38;99865.00;;;18.88;75.07
40730;BME280;26418;50.070;8.436;2023-05-09T09:33:45;99874.22;;;19.15;73.29
40730;BME280;26418;50.070;8.436;2023-05-09T09:36:10;99870.72;;;19.14;73.07
40730;BME280;26418;50.070;8.436;2023-05-09T09:38:39;99868.81;;;19.19;73.54
40730;BME280;26418;50.070;8.436;2023-05-09T09:41:05;99869.19;;;19.17;73.42
40730;BME280;26418;50.070;8.436;2023-05-09T09:43:31;99856.84;;;19.07;73.06
40730;BME280;26418;50.070;8.436;2023-05-09T09:46:01;99858.00;;;19.06;73.36
40730;BME280;26418;50.070;8.436;2023-05-09T09:48:30;99853.44;;;19.14;74.21
40730;BME280;26418;50.070;8.436;2023-05-09T09:51:02;99850.06;;;19.21;72.61
40730;BME280;26418;50.070;8.436;2023-05-09T09:53:28;99845.09;;;19.26;72.37
40730;BME280;26418;50.070;8.436;2023-05-09T09:55:54;99840.97;;;19.36;72.13
40730;BME280;26418;50.070;8.436;2023-05-09T09:58:20;99828.56;;;19.42;72.05
40730;BME280;26418;50.070;8.436;2023-05-09T10:00:46;99831.69;;;19.64;71.31
40730;BME280;26418;50.070;8.436;2023-05-09T10:03:15;99826.69;;;19.89;70.47
40730;BME280;26418;50.070;8.436;2023-05-09T10:05:40;99831.22;;;20.28;69.58
40730;BME280;26418;50.070;8.436;2023-05-09T10:08:06;99820.56;;;20.50;67.57
40730;BME280;26418;50.070;8.436;2023-05-09T10:10:36;99820.97;;;20.79;67.21
40730;BME280;26418;50.070;8.436;2023-05-09T10:13:07;99802.81;;;21.01;66.77
40730;BME280;26418;50.070;8.436;2023-05-09T10:15:35;99807.56;;;21.04;65.63
40730;BME280;26418;50.070;8.436;2023-05-09T10:18:01;99799.06;;;21.16;65.71
40730;BME280;26418;50.070;8.436;2023-05-09T10:20:29;99797.16;;;21.20;66.08
40730;BME280;26418;50.070;8.436;2023-05-09T10:22:57;99784.44;;;21.09;65.11
40730;BME280;26418;50.070;8.436;2023-05-09T10:25:46;99797.50;;;21.15;65.37
40730;BME280;26418;50.070;8.436;2023-05-09T10:28:16;99786.63;;;20.92;65.38
40730;BME280;26418;50.070;8.436;2023-05-09T10:31:06;99783.66;;;20.78;66.13
40730;BME280;26418;50.070;8.436;2023-05-09T10:33:37;99779.72;;;20.75;66.58
40730;BME280;26418;50.070;8.436;2023-05-09T10:36:06;99771.94;;;20.81;66.79
40730;BME280;26418;50.070;8.436;2023-05-09T10:38:31;99770.41;;;20.83;66.46
40730;BME280;26418;50.070;8.436;2023-05-09T10:40:58;99751.69;;;20.96;66.63
40730;BME280;26418;50.070;8.436;2023-05-09T10:43:23;99739.63;;;21.04;65.93
40730;BME280;26418;50.070;8.436;2023-05-09T10:45:50;99752.50;;;21.34;65.62
40730;BME280;26418;50.070;8.436;2023-05-09T10:48:16;99750.72;;;21.53;64.97
40730;BME280;26418;50.070;8.436;2023-05-09T10:50:44;99750.47;;;21.65;65.13
40730;BME280;26418;50.070;8.436;2023-05-09T10:53:10;99747.50;;;21.89;64.01
40730;BME280;26418;50.070;8.436;2023-05-09T10:55:53;99740.97;;;22.11;63.46
40730;BME280;26418;50.070;8.436;2023-05-09T10:58:23;99746.50;;;22.15;62.30
40730;BME280;26418;50.070;8.436;2023-05-09T11:00:50;99727.97;;;22.12;61.75
40730;BME280;26418;50.070;8.436;2023-05-09T11:03:15;99723.22;;;22.05;61.08
40730;BME280;26418;50.070;8.436;2023-05-09T11:05:49;99721.63;;;22.01;62.02
40730;BME280;26418;50.070;8.436;2023-05-09T11:08:30;99718.31;;;21.77;61.85
40730;BME280;26418;50.070;8.436;2023-05-09T11:11:03;99715.81;;;21.61;62.28
40730;BME280;26418;50.070;8.436;2023-05-09T11:13:30;99700.28;;;21.38;62.82
40730;BME280;26418;50.070;8.436;2023-05-09T11:18:24;99696.94;;;21.18;64.95
40730;BME280;26418;50.070;8.436;2023-05-09T11:20:49;99698.00;;;21.06;66.05
40730;BME280;26418;50.070;8.436;2023-05-09T11:23:19;99705.66;;;20.86;66.69
40730;BME280;26418;50.070;8.436;2023-05-09T11:25:46;99697.59;;;20.70;67.61
40730;BME280;26418;50.070;8.436;2023-05-09T11:28:25;99708.63;;;20.43;69.29
40730;BME280;26418;50.070;8.436;2023-05-09T11:33:35;99696.91;;;19.89;74.10
40730;BME280;26418;50.070;8.436;2023-05-09T11:38:47;99690.19;;;19.63;77.99
40730;BME280;26418;50.070;8.436;2023-05-09T11:41:13;99695.84;;;19.74;77.94
40730;BME280;26418;50.070;8.436;2023-05-09T11:43:42;99694.25;;;19.73;77.85
40730;BME280;26418;50.070;8.436;2023-05-09T11:46:10;99681.44;;;19.80;76.85
40730;BME280;26418;50.070;8.436;2023-05-09T11:48:37;99685.50;;;19.87;78.36
40730;BME280;26418;50.070;8.436;2023-05-09T11:51:03;99677.53;;;20.05;78.12
40730;BME280;26418;50.070;8.436;2023-05-09T11:53:28;99654.47;;;20.09;76.44
40730;BME280;26418;50.070;8.436;2023-05-09T11:55:54;99670.47;;;20.34;76.65
40730;BME280;26418;50.070;8.436;2023-05-09T11:58:19;99658.25;;;20.66;75.77
40730;BME280;26418;50.070;8.436;2023-05-09T12:00:45;99648.78;;;20.94;74.89
40730;BME280;26418;50.070;8.436;2023-05-09T12:03:10;99648.22;;;21.18;71.05
40730;BME280;26418;50.070;8.436;2023-05-09T12:05:36;99636.59;;;21.40;70.51
40730;BME280;26418;50.070;8.436;2023-05-09T12:08:04;99650.25;;;21.74;69.74
40730;BME280;26418;50.070;8.436;2023-05-09T12:10:30;99623.66;;;21.99;69.08
40730;BME280;26418;50.070;8.436;2023-05-09T12:12:55;99633.31;;;22.42;67.62
40730;BME280;26418;50.070;8.436;2023-05-09T12:15:21;99634.22;;;22.82;66.49
40730;BME280;26418;50.070;8.436;2023-05-09T12:17:47;99627.56;;;23.16;64.25
40730;BME280;26418;50.070;8.436;2023-05-09T12:20:24;99621.25;;;23.62;65.07
40730;BME280;26418;50.070;8.436;2023-05-09T12:22:51;99610.91;;;24.06;61.92
40730;BME280;26418;50.070;8.436;2023-05-09T12:25:17;99599.31;;;24.37;60.42
40730;BME280;26418;50.070;8.436;2023-05-09T12:27:42;99603.94;;;24.61;59.70
40730;BME280;26418;50.070;8.436;2023-05-09T12:30:08;99596.84;;;24.68;60.32
40730;BME280;26418;50.070;8.436;2023-05-09T12:32:38;99589.66;;;24.74;60.99
40730;BME280;26418;50.070;8.436;2023-05-09T12:35:05;99581.69;;;24.87;61.01
40730;BME280;26418;50.070;8.436;2023-05-09T12:37:31;99579.25;;;24.96;57.69
40730;BME280;26418;50.070;8.436;2023-05-09T12:40:09;99580.63;;;25.19;59.15
40730;BME280;26418;50.070;8.436;2023-05-09T12:42:43;99570.19;;;25.37;57.99
40730;BME280;26418;50.070;8.436;2023-05-09T12:45:09;99570.47;;;25.50;56.52
40730;BME280;26418;50.070;8.436;2023-05-09T12:47:35;99570.78;;;25.60;56.72
40730;BME280;26418;50.070;8.436;2023-05-09T12:50:04;99562.22;;;25.47;54.38
40730;BME280;26418;50.070;8.436;2023-05-09T12:55:06;99550.03;;;24.91;54.47
40730;BME280;26418;50.070;8.436;2023-05-09T12:57:32;99541.50;;;24.71;57.30
40730;BME280;26418;50.070;8.436;2023-05-09T12:59:58;99537.59;;;24.58;58.27
40730;BME280;26418;50.070;8.436;2023-05-09T13:02:25;99536.97;;;24.32;58.79
40730;BME280;26418;50.070;8.436;2023-05-09T13:07:55;99533.72;;;23.52;60.46
40730;BME280;26418;50.070;8.436;2023-05-09T13:10:25;99533.38;;;23.17;61.03
40730;BME280;26418;50.070;8.436;2023-05-09T13:12:51;99530.63;;;22.92;62.08
40730;BME280;26418;50.070;8.436;2023-05-09T13:15:19;99540.06;;;22.58;63.22
40730;BME280;26418;50.070;8.436;2023-05-09T13:17:46;99525.41;;;22.25;64.79
40730;BME280;26418;50.070;8.436;2023-05-09T13:20:11;99501.69;;;21.95;65.68
40730;BME280;26418;50.070;8.436;2023-05-09T13:22:37;99513.78;;;21.65;65.95
40730;BME280;26418;50.070;8.436;2023-05-09T13:25:03;99520.81;;;21.59;67.25